sensor_id;sensor_type;location;lat;lon;timestamp;P1;durP1;ratioP1;P2;durP2;ratioP2
66327;SDS011;53133;52.862;6.602;2023-02-03T00:01:26;5.57;;;2.15;;
66327;SDS011;53133;52.862;6.602;2023-02-03T00:03:52;7.03;;;2.45;;
66327;SDS011;53133;52.862;6.602;2023-02-03T00:06:17;9.30;;;2.65;;
66327;SDS011;53133;52.862;6.602;2023-02-03T00:08:43;7.22;;;2.35;;
66327;SDS011;53133;52.862;6.602;2023-02-03T00:11:09;11.00;;;2.25;;
66327;SDS011;53133;52.862;6.602;2023-02-03T00:13:35;12.85;;;2.40;;
66327;SDS011;53133;52.862;6.602;2023-02-03T00:16:01;12.23;;;3.00;;
66327;SDS011;53133;52.862;6.602;2023-02-03T00:18:27;7.32;;;2.00;;
66327;SDS011;53133;52.862;6.602;2023-02-03T00:20:52;8.95;;;2.00;;
66327;SDS011;53133;52.862;6.602;2023-02-03T00:23:18;9.75;;;2.00;;
66327;SDS011;53133;52.862;6.602;2023-02-03T00:25:44;8.45;;;2.00;;
66327;SDS011;53133;52.862;6.602;2023-02-03T00:28:09;4.82;;;2.05;;
66327;SDS011;53133;52.862;6.602;2023-02-03T00:30:35;9.18;;;1.95;;
66327;SDS011;53133;52.862;6.602;2023-02-03T00:33:02;7.57;;;1.95;;
66327;SDS011;53133;52.862;6.602;2023-02-03T00:35:28;8.50;;;1.98;;
66327;SDS011;53133;52.862;6.602;2023-02-03T00:37:54;11.07;;;2.30;;
66327;SDS011;53133;52.862;6.602;2023-02-03T00:40:21;10.82;;;2.40;;
66327;SDS011;53133;52.862;6.602;2023-02-03T00:42:49;10.18;;;2.33;;
66327;SDS011;53133;52.862;6.602;2023-02-03T00:45:15;9.73;;;2.30;;
66327;SDS011;53133;52.862;6.602;2023-02-03T00:47:40;8.95;;;2.67;;
66327;SDS011;53133;52.862;6.602;2023-02-03T00:50:06;11.35;;;2.72;;
66327;SDS011;53133;52.862;6.602;2023-02-03T00:52:32;8.10;;;2.25;;
66327;SDS011;53133;52.862;6.602;2023-02-03T00:54:58;11.80;;;2.30;;
66327;SDS011;53133;52.862;6.602;2023-02-03T00:57:24;8.60;;;2.15;;
66327;SDS011;53133;52.862;6.602;2023-02-03T00:59:49;8.02;;;2.10;;
66327;SDS011;53133;52.862;6.602;2023-02-03T01:02:15;9.73;;;2.55;;
66327;SDS011;53133;52.862;6.602;2023-02-03T01:04:41;12.30;;;2.67;;
66327;SDS011;53133;52.862;6.602;2023-02-03T01:07:08;8.93;;;2.50;;
66327;SDS011;53133;52.862;6.602;2023-02-03T01:09:35;8.40;;;2.45;;
66327;SDS011;53133;52.862;6.602;2023-02-03T01:12:01;13.63;;;3.28;;
66327;SDS011;53133;52.862;6.602;2023-02-03T01:14:28;11.32;;;3.00;;
66327;SDS011;53133;52.862;6.602;2023-02-03T01:16:53;9.88;;;3.45;;
66327;SDS011;53133;52.862;6.602;2023-02-03T01:19:19;10.73;;;2.63;;
66327;SDS011;53133;52.862;6.602;2023-02-03T01:21:45;12.75;;;3.20;;
66327;SDS011;53133;52.862;6.602;2023-02-03T01:24:10;9.68;;;3.63;;
66327;SDS011;53133;52.862;6.602;2023-02-03T01:26:36;10.57;;;3.10;;
66327;SDS011;53133;52.862;6.602;2023-02-03T01:29:02;10.60;;;3.50;;
66327;SDS011;53133;52.862;6.602;2023-02-03T01:31:35;12.55;;;3.38;;
66327;SDS011;53133;52.862;6.602;2023-02-03T01:34:06;10.52;;;2.97;;
66327;SDS011;53133;52.862;6.602;2023-02-03T01:36:35;10.68;;;3.30;;
66327;SDS011;53133;52.862;6.602;2023-02-03T01:39:02;11.95;;;3.30;;
66327;SDS011;53133;52.862;6.602;2023-02-03T01:41:29;12.18;;;3.15;;
66327;SDS011;53133;52.862;6.602;2023-02-03T01:43:57;14.13;;;3.72;;
66327;SDS011;53133;52.862;6.602;2023-02-03T01:46:34;14.25;;;3.25;;
66327;SDS011;53133;52.862;6.602;2023-02-03T01:51:35;11.98;;;3.10;;
66327;SDS011;53133;52.862;6.602;2023-02-03T01:54:04;12.07;;;3.45;;
66327;SDS011;53133;52.862;6.602;2023-02-03T01:56:34;10.73;;;3.10;;
66327;SDS011;53133;52.862;6.602;2023-02-03T01:59:02;14.30;;;3.03;;
66327;SDS011;53133;52.862;6.602;2023-02-03T02:01:27;10.27;;;2.95;;
66327;SDS011;53133;52.862;6.602;2023-02-03T02:03:55;14.65;;;3.70;;
66327;SDS011;53133;52.862;6.602;2023-02-03T02:06:23;11.80;;;2.70;;
66327;SDS011;53133;52.862;6.602;2023-02-03T02:08:49;11.63;;;2.90;;
66327;SDS011;53133;52.862;6.602;2023-02-03T02:11:16;12.50;;;2.90;;
66327;SDS011;53133;52.862;6.602;2023-02-03T02:13:45;9.13;;;3.33;;
66327;SDS011;53133;52.862;6.602;2023-02-03T02:16:15;13.10;;;3.58;;
66327;SDS011;53133;52.862;6.602;2023-02-03T02:27:45;14.35;;;3.03;;
66327;SDS011;53133;52.862;6.602;2023-02-03T02:30:20;13.88;;;3.20;;
66327;SDS011;53133;52.862;6.602;2023-02-03T02:33:09;12.02;;;2.70;;
66327;SDS011;53133;52.862;6.602;2023-02-03T02:35:43;8.75;;;2.83;;
66327;SDS011;53133;52.862;6.602;2023-02-03T02:38:28;10.50;;;2.67;;
66327;SDS011;53133;52.862;6.602;2023-02-03T02:41:14;12.80;;;3.50;;
66327;SDS011;53133;52.862;6.602;2023-02-03T02:43:59;12.65;;;2.70;;
66327;SDS011;53133;52.862;6.602;2023-02-03T02:46:34;11.38;;;3.00;;
66327;SDS011;53133;52.862;6.602;2023-02-03T02:49:05;10.18;;;2.60;;
66327;SDS011;53133;52.862;6.602;2023-02-03T02:51:40;9.00;;;2.45;;
66327;SDS011;53133;52.862;6.602;2023-02-03T02:54:10;11.48;;;2.40;;
66327;SDS011;53133;52.862;6.602;2023-02-03T02:56:38;10.80;;;2.35;;
66327;SDS011;53133;52.862;6.602;2023-02-03T02:59:06;7.05;;;2.55;;
66327;SDS011;53133;52.862;6.602;2023-02-03T03:01:33;11.05;;;2.70;;
66327;SDS011;53133;52.862;6.602;2023-02-03T03:03:59;12.68;;;2.72;;
66327;SDS011;53133;52.862;6.602;2023-02-03T03:06:32;7.70;;;2.25;;
66327;SDS011;53133;52.862;6.602;2023-02-03T03:11:36;9.43;;;2.70;;
66327;SDS011;53133;52.862;6.602;2023-02-03T03:14:06;8.50;;;2.30;;
66327;SDS011;53133;52.862;6.602;2023-02-03T03:16:35;7.63;;;2.30;;
66327;SDS011;53133;52.862;6.602;2023-02-03T03:19:06;8.00;;;2.38;;
66327;SDS011;53133;52.862;6.602;2023-02-03T03:21:37;10.82;;;2.40;;
66327;SDS011;53133;52.862;6.602;2023-02-03T03:24:10;11.70;;;3.13;;
66327;SDS011;53133;52.862;6.602;2023-02-03T03:26:46;11.30;;;2.65;;
66327;SDS011;53133;52.862;6.602;2023-02-03T03:29:19;9.88;;;2.35;;
66327;SDS011;53133;52.862;6.602;2023-02-03T03:31:49;9.55;;;2.55;;
66327;SDS011;53133;52.862;6.602;2023-02-03T03:34:15;6.82;;;2.40;;
66327;SDS011;53133;52.862;6.602;2023-02-03T03:36:46;8.93;;;2.22;;
66327;SDS011;53133;52.862;6.602;2023-02-03T03:44:58;6.93;;;1.95;;
66327;SDS011;53133;52.862;6.602;2023-02-03T03:47:36;12.27;;;2.83;;
66327;SDS011;53133;52.862;6.602;2023-02-03T03:50:07;13.35;;;2.83;;
66327;SDS011;53133;52.862;6.602;2023-02-03T03:52:35;7.57;;;2.40;;
66327;SDS011;53133;52.862;6.602;2023-02-03T03:55:03;10.00;;;2.15;;
66327;SDS011;53133;52.862;6.602;2023-02-03T03:57:33;8.20;;;2.70;;
66327;SDS011;53133;52.862;6.602;2023-02-03T04:00:09;8.23;;;2.60;;
66327;SDS011;53133;52.862;6.602;2023-02-03T04:02:39;8.55;;;2.08;;
66327;SDS011;53133;52.862;6.602;2023-02-03T04:05:06;10.45;;;2.47;;
66327;SDS011;53133;52.862;6.602;2023-02-03T04:07:51;7.68;;;2.53;;
66327;SDS011;53133;52.862;6.602;2023-02-03T04:12:56;9.77;;;2.10;;
66327;SDS011;53133;52.862;6.602;2023-02-03T04:15:21;14.23;;;2.60;;
66327;SDS011;53133;52.862;6.602;2023-02-03T04:17:47;21.45;;;2.80;;
66327;SDS011;53133;52.862;6.602;2023-02-03T04:20:13;8.80;;;2.10;;
66327;SDS011;53133;52.862;6.602;2023-02-03T04:22:40;9.88;;;2.42;;
66327;SDS011;53133;52.862;6.602;2023-02-03T04:25:05;5.93;;;2.13;;
66327;SDS011;53133;52.862;6.602;2023-02-03T04:27:31;11.32;;;2.35;;
66327;SDS011;53133;52.862;6.602;2023-02-03T04:29:57;10.07;;;2.65;;
66327;SDS011;53133;52.862;6.602;2023-02-03T04:32:23;10.68;;;2.28;;
66327;SDS011;53133;52.862;6.602;2023-02-03T04:34:48;10.38;;;2.30;;
66327;SDS011;53133;52.862;6.602;2023-02-03T04:37:14;12.93;;;2.75;;
66327;SDS011;53133;52.862;6.602;2023-02-03T04:39:40;14.27;;;2.97;;
66327;SDS011;53133;52.862;6.602;2023-02-03T04:42:05;7.45;;;2.15;;
66327;SDS011;53133;52.862;6.602;2023-02-03T04:44:31;11.85;;;2.35;;
66327;SDS011;53133;52.862;6.602;2023-02-03T04:46:56;10.05;;;2.45;;
66327;SDS011;53133;52.862;6.602;2023-02-03T04:49:22;9.60;;;2.22;;
66327;SDS011;53133;52.862;6.602;2023-02-03T04:51:48;11.30;;;2.33;;
66327;SDS011;53133;52.862;6.602;2023-02-03T04:54:13;9.40;;;2.72;;
66327;SDS011;53133;52.862;6.602;2023-02-03T04:56:39;16.20;;;2.47;;
66327;SDS011;53133;52.862;6.602;2023-02-03T04:59:05;10.48;;;1.95;;
66327;SDS011;53133;52.862;6.602;2023-02-03T05:01:31;10.23;;;2.40;;
66327;SDS011;53133;52.862;6.602;2023-02-03T05:03:56;10.80;;;2.50;;
66327;SDS011;53133;52.862;6.602;2023-02-03T05:06:23;12.38;;;3.30;;
66327;SDS011;53133;52.862;6.602;2023-02-03T05:08:50;8.10;;;2.15;;
66327;SDS011;53133;52.862;6.602;2023-02-03T05:11:19;10.50;;;2.85;;
66327;SDS011;53133;52.862;6.602;2023-02-03T05:13:45;11.05;;;2.47;;
66327;SDS011;53133;52.862;6.602;2023-02-03T05:16:11;11.73;;;2.35;;
66327;SDS011;53133;52.862;6.602;2023-02-03T05:18:37;10.20;;;2.60;;
66327;SDS011;53133;52.862;6.602;2023-02-03T05:21:03;9.95;;;2.45;;
66327;SDS011;53133;52.862;6.602;2023-02-03T05:23:28;10.93;;;2.38;;
66327;SDS011;53133;52.862;6.602;2023-02-03T05:25:54;12.25;;;2.20;;
66327;SDS011;53133;52.862;6.602;2023-02-03T05:28:19;7.40;;;2.33;;
66327;SDS011;53133;52.862;6.602;2023-02-03T05:30:45;12.93;;;2.45;;
66327;SDS011;53133;52.862;6.602;2023-02-03T05:33:11;10.43;;;2.50;;
66327;SDS011;53133;52.862;6.602;2023-02-03T05:35:36;10.00;;;2.55;;
66327;SDS011;53133;52.862;6.602;2023-02-03T05:38:02;8.10;;;3.03;;
66327;SDS011;53133;52.862;6.602;2023-02-03T05:40:28;7.22;;;2.58;;
66327;SDS011;53133;52.862;6.602;2023-02-03T05:43:12;8.88;;;2.58;;
66327;SDS011;53133;52.862;6.602;2023-02-03T05:45:38;9.85;;;2.55;;
66327;SDS011;53133;52.862;6.602;2023-02-03T05:48:03;12.98;;;2.70;;
66327;SDS011;53133;52.862;6.602;2023-02-03T05:50:31;11.50;;;2.70;;
66327;SDS011;53133;52.862;6.602;2023-02-03T05:52:58;11.07;;;2.63;;
66327;SDS011;53133;52.862;6.602;2023-02-03T05:55:24;9.05;;;2.80;;
66327;SDS011;53133;52.862;6.602;2023-02-03T05:57:50;10.30;;;2.55;;
66327;SDS011;53133;52.862;6.602;2023-02-03T06:00:16;8.48;;;2.28;;
66327;SDS011;53133;52.862;6.602;2023-02-03T06:02:41;12.25;;;2.75;;
66327;SDS011;53133;52.862;6.602;2023-02-03T06:05:07;9.88;;;2.80;;
66327;SDS011;53133;52.862;6.602;2023-02-03T06:07:33;6.82;;;3.03;;
66327;SDS011;53133;52.862;6.602;2023-02-03T06:09:59;12.25;;;2.95;;
66327;SDS011;53133;52.862;6.602;2023-02-03T06:12:24;9.73;;;3.08;;
66327;SDS011;53133;52.862;6.602;2023-02-03T06:14:50;12.95;;;2.92;;
66327;SDS011;53133;52.862;6.602;2023-02-03T06:17:16;11.10;;;3.22;;
66327;SDS011;53133;52.862;6.602;2023-02-03T06:19:41;10.98;;;2.95;;
66327;SDS011;53133;52.862;6.602;2023-02-03T06:22:07;11.85;;;3.30;;
66327;SDS011;53133;52.862;6.602;2023-02-03T06:24:32;12.50;;;3.80;;
66327;SDS011;53133;52.862;6.602;2023-02-03T06:26:58;9.23;;;3.00;;
66327;SDS011;53133;52.862;6.602;2023-02-03T06:29:23;11.32;;;2.97;;
66327;SDS011;53133;52.862;6.602;2023-02-03T06:31:49;13.32;;;3.05;;
66327;SDS011;53133;52.862;6.602;2023-02-03T06:34:14;14.30;;;3.40;;
66327;SDS011;53133;52.862;6.602;2023-02-03T06:36:40;11.73;;;3.38;;
66327;SDS011;53133;52.862;6.602;2023-02-03T06:39:06;11.43;;;3.42;;
66327;SDS011;53133;52.862;6.602;2023-02-03T06:41:31;12.70;;;3.05;;
66327;SDS011;53133;52.862;6.602;2023-02-03T06:43:57;13.07;;;3.08;;
66327;SDS011;53133;52.862;6.602;2023-02-03T06:46:22;10.30;;;2.90;;
66327;SDS011;53133;52.862;6.602;2023-02-03T06:48:53;15.85;;;3.22;;
66327;SDS011;53133;52.862;6.602;2023-02-03T06:51:18;8.68;;;3.05;;
66327;SDS011;53133;52.862;6.602;2023-02-03T06:53:44;12.82;;;3.25;;
66327;SDS011;53133;52.862;6.602;2023-02-03T06:56:10;15.02;;;3.20;;
66327;SDS011;53133;52.862;6.602;2023-02-03T06:58:35;13.90;;;3.58;;
66327;SDS011;53133;52.862;6.602;2023-02-03T07:01:01;12.95;;;3.53;;
66327;SDS011;53133;52.862;6.602;2023-02-03T07:03:26;11.73;;;3.00;;
66327;SDS011;53133;52.862;6.602;2023-02-03T07:05:52;11.05;;;3.17;;
66327;SDS011;53133;52.862;6.602;2023-02-03T07:08:18;14.23;;;3.47;;
66327;SDS011;53133;52.862;6.602;2023-02-03T07:10:43;12.55;;;3.42;;
66327;SDS011;53133;52.862;6.602;2023-02-03T07:13:09;12.40;;;2.72;;
66327;SDS011;53133;52.862;6.602;2023-02-03T07:15:34;16.20;;;3.42;;
66327;SDS011;53133;52.862;6.602;2023-02-03T07:18:00;11.18;;;3.30;;
66327;SDS011;53133;52.862;6.602;2023-02-03T07:20:26;11.82;;;3.20;;
66327;SDS011;53133;52.862;6.602;2023-02-03T07:22:56;11.65;;;3.40;;
66327;SDS011;53133;52.862;6.602;2023-02-03T07:25:22;12.52;;;3.35;;
66327;SDS011;53133;52.862;6.602;2023-02-03T07:27:49;9.63;;;3.42;;
66327;SDS011;53133;52.862;6.602;2023-02-03T07:30:15;11.43;;;3.22;;
66327;SDS011;53133;52.862;6.602;2023-02-03T07:32:45;11.70;;;3.45;;
66327;SDS011;53133;52.862;6.602;2023-02-03T07:35:14;13.88;;;3.63;;
66327;SDS011;53133;52.862;6.602;2023-02-03T07:37:40;15.65;;;3.72;;
66327;SDS011;53133;52.862;6.602;2023-02-03T07:40:06;18.58;;;4.00;;
66327;SDS011;53133;52.862;6.602;2023-02-03T07:42:33;12.77;;;3.90;;
66327;SDS011;53133;52.862;6.602;2023-02-03T07:44:58;15.82;;;3.58;;
66327;SDS011;53133;52.862;6.602;2023-02-03T07:47:24;14.98;;;3.47;;
66327;SDS011;53133;52.862;6.602;2023-02-03T07:49:49;15.00;;;4.03;;
66327;SDS011;53133;52.862;6.602;2023-02-03T07:52:15;10.23;;;3.50;;
66327;SDS011;53133;52.862;6.602;2023-02-03T07:54:40;12.90;;;3.90;;
66327;SDS011;53133;52.862;6.602;2023-02-03T07:57:06;17.00;;;3.63;;
66327;SDS011;53133;52.862;6.602;2023-02-03T07:59:32;16.90;;;3.92;;
66327;SDS011;53133;52.862;6.602;2023-02-03T08:01:57;14.70;;;3.80;;
66327;SDS011;53133;52.862;6.602;2023-02-03T08:04:23;16.13;;;4.07;;
66327;SDS011;53133;52.862;6.602;2023-02-03T08:06:48;13.43;;;3.67;;
66327;SDS011;53133;52.862;6.602;2023-02-03T08:09:14;13.63;;;3.67;;
66327;SDS011;53133;52.862;6.602;2023-02-03T08:11:40;14.30;;;3.55;;
66327;SDS011;53133;52.862;6.602;2023-02-03T08:14:05;21.17;;;4.47;;
66327;SDS011;53133;52.862;6.602;2023-02-03T08:16:31;14.23;;;4.07;;
66327;SDS011;53133;52.862;6.602;2023-02-03T08:18:57;16.38;;;3.83;;
66327;SDS011;53133;52.862;6.602;2023-02-03T08:21:22;16.40;;;3.72;;
66327;SDS011;53133;52.862;6.602;2023-02-03T08:23:48;16.98;;;4.10;;
66327;SDS011;53133;52.862;6.602;2023-02-03T08:26:13;16.95;;;4.13;;
66327;SDS011;53133;52.862;6.602;2023-02-03T08:28:39;20.40;;;5.20;;
66327;SDS011;53133;52.862;6.602;2023-02-03T08:31:08;14.55;;;5.25;;
66327;SDS011;53133;52.862;6.602;2023-02-03T08:33:35;15.52;;;4.70;;
66327;SDS011;53133;52.862;6.602;2023-02-03T08:36:00;16.17;;;4.45;;
66327;SDS011;53133;52.862;6.602;2023-02-03T08:38:27;13.15;;;5.57;;
66327;SDS011;53133;52.862;6.602;2023-02-03T08:40:52;19.23;;;5.20;;
66327;SDS011;53133;52.862;6.602;2023-02-03T08:43:18;20.60;;;6.60;;
66327;SDS011;53133;52.862;6.602;2023-02-03T08:45:43;12.95;;;4.38;;
66327;SDS011;53133;52.862;6.602;2023-02-03T08:48:09;19.05;;;4.68;;
66327;SDS011;53133;52.862;6.602;2023-02-03T08:50:35;14.77;;;3.90;;
66327;SDS011;53133;52.862;6.602;2023-02-03T08:53:01;14.32;;;4.25;;
66327;SDS011;53133;52.862;6.602;2023-02-03T08:55:26;16.60;;;4.30;;
66327;SDS011;53133;52.862;6.602;2023-02-03T08:57:52;20.30;;;4.03;;
66327;SDS011;53133;52.862;6.602;2023-02-03T09:00:17;15.98;;;3.83;;
66327;SDS011;53133;52.862;6.602;2023-02-03T09:02:43;13.77;;;4.00;;
66327;SDS011;53133;52.862;6.602;2023-02-03T09:05:09;18.15;;;3.85;;
66327;SDS011;53133;52.862;6.602;2023-02-03T09:07:35;12.52;;;3.55;;
66327;SDS011;53133;52.862;6.602;2023-02-03T09:10:00;18.80;;;4.00;;
66327;SDS011;53133;52.862;6.602;2023-02-03T09:12:26;15.85;;;3.60;;
66327;SDS011;53133;52.862;6.602;2023-02-03T09:14:52;13.98;;;4.05;;
66327;SDS011;53133;52.862;6.602;2023-02-03T09:17:17;15.07;;;3.38;;
66327;SDS011;53133;52.862;6.602;2023-02-03T09:19:43;14.93;;;3.67;;
66327;SDS011;53133;52.862;6.602;2023-02-03T09:22:08;15.13;;;4.00;;
66327;SDS011;53133;52.862;6.602;2023-02-03T09:24:34;15.80;;;3.63;;
66327;SDS011;53133;52.862;6.602;2023-02-03T09:27:00;21.05;;;4.28;;
66327;SDS011;53133;52.862;6.602;2023-02-03T09:29:26;17.77;;;4.28;;
66327;SDS011;53133;52.862;6.602;2023-02-03T09:31:51;14.30;;;3.95;;
66327;SDS011;53133;52.862;6.602;2023-02-03T09:34:18;18.90;;;4.38;;
66327;SDS011;53133;52.862;6.602;2023-02-03T09:36:44;22.55;;;4.57;;
66327;SDS011;53133;52.862;6.602;2023-02-03T09:39:10;21.15;;;4.60;;
66327;SDS011;53133;52.862;6.602;2023-02-03T09:46:41;21.42;;;4.00;;
66327;SDS011;53133;52.862;6.602;2023-02-03T09:49:23;21.65;;;5.28;;
66327;SDS011;53133;52.862;6.602;2023-02-03T09:57:20;21.58;;;4.43;;
66327;SDS011;53133;52.862;6.602;2023-02-03T09:59:48;22.10;;;4.70;;
66327;SDS011;53133;52.862;6.602;2023-02-03T10:02:20;26.23;;;4.78;;
66327;SDS011;53133;52.862;6.602;2023-02-03T10:05:07;24.38;;;4.70;;
66327;SDS011;53133;52.862;6.602;2023-02-03T10:07:44;21.83;;;4.70;;
66327;SDS011;53133;52.862;6.602;2023-02-03T10:10:21;24.73;;;5.15;;
66327;SDS011;53133;52.862;6.602;2023-02-03T10:13:08;18.98;;;4.78;;
66327;SDS011;53133;52.862;6.602;2023-02-03T10:18:18;27.45;;;6.65;;
66327;SDS011;53133;52.862;6.602;2023-02-03T10:20:50;26.73;;;5.93;;
66327;SDS011;53133;52.862;6.602;2023-02-03T10:23:27;19.58;;;4.85;;
66327;SDS011;53133;52.862;6.602;2023-02-03T10:25:57;17.67;;;5.00;;
66327;SDS011;53133;52.862;6.602;2023-02-03T10:28:26;26.33;;;5.60;;
66327;SDS011;53133;52.862;6.602;2023-02-03T10:30:58;21.20;;;4.63;;
66327;SDS011;53133;52.862;6.602;2023-02-03T10:33:26;26.08;;;5.10;;
66327;SDS011;53133;52.862;6.602;2023-02-03T10:36:02;20.60;;;5.13;;
66327;SDS011;53133;52.862;6.602;2023-02-03T10:41:03;29.98;;;6.20;;
66327;SDS011;53133;52.862;6.602;2023-02-03T10:43:28;29.98;;;5.40;;
66327;SDS011;53133;52.862;6.602;2023-02-03T10:46:11;30.27;;;6.18;;
66327;SDS011;53133;52.862;6.602;2023-02-03T10:48:37;25.20;;;5.80;;
66327;SDS011;53133;52.862;6.602;2023-02-03T10:51:03;27.83;;;5.65;;
66327;SDS011;53133;52.862;6.602;2023-02-03T10:53:36;29.42;;;6.28;;
66327;SDS011;53133;52.862;6.602;2023-02-03T10:56:09;34.97;;;6.05;;
66327;SDS011;53133;52.862;6.602;2023-02-03T10:58:38;29.20;;;5.88;;
66327;SDS011;53133;52.862;6.602;2023-02-03T11:01:18;28.75;;;5.45;;
66327;SDS011;53133;52.862;6.602;2023-02-03T11:04:04;32.03;;;5.75;;
66327;SDS011;53133;52.862;6.602;2023-02-03T11:06:31;26.85;;;4.93;;
66327;SDS011;53133;52.862;6.602;2023-02-03T11:08:58;22.20;;;5.13;;
66327;SDS011;53133;52.862;6.602;2023-02-03T11:14:16;35.00;;;5.97;;
66327;SDS011;53133;52.862;6.602;2023-02-03T11:16:41;25.73;;;5.68;;
66327;SDS011;53133;52.862;6.602;2023-02-03T11:19:17;27.13;;;5.60;;
66327;SDS011;53133;52.862;6.602;2023-02-03T11:21:45;33.40;;;5.90;;
66327;SDS011;53133;52.862;6.602;2023-02-03T11:24:19;29.98;;;5.68;;
66327;SDS011;53133;52.862;6.602;2023-02-03T11:26:54;25.27;;;5.82;;
66327;SDS011;53133;52.862;6.602;2023-02-03T11:31:52;30.33;;;6.45;;
66327;SDS011;53133;52.862;6.602;2023-02-03T11:34:29;29.02;;;6.35;;
66327;SDS011;53133;52.862;6.602;2023-02-03T11:36:57;30.95;;;6.28;;
66327;SDS011;53133;52.862;6.602;2023-02-03T11:39:33;28.00;;;5.97;;
66327;SDS011;53133;52.862;6.602;2023-02-03T11:42:00;27.35;;;6.30;;
66327;SDS011;53133;52.862;6.602;2023-02-03T11:44:27;36.58;;;7.53;;
66327;SDS011;53133;52.862;6.602;2023-02-03T11:46:59;34.50;;;6.82;;
66327;SDS011;53133;52.862;6.602;2023-02-03T12:02:50;34.90;;;6.03;;
66327;SDS011;53133;52.862;6.602;2023-02-03T12:08:32;22.58;;;5.30;;
66327;SDS011;53133;52.862;6.602;2023-02-03T12:11:13;34.05;;;5.78;;
66327;SDS011;53133;52.862;6.602;2023-02-03T12:22:12;32.03;;;6.60;;
66327;SDS011;53133;52.862;6.602;2023-02-03T12:24:58;29.45;;;5.88;;
66327;SDS011;53133;52.862;6.602;2023-02-03T12:30:29;31.80;;;5.82;;
66327;SDS011;53133;52.862;6.602;2023-02-03T12:33:04;34.30;;;5.77;;
66327;SDS011;53133;52.862;6.602;2023-02-03T12:35:40;26.67;;;5.72;;
66327;SDS011;53133;52.862;6.602;2023-02-03T12:40:47;33.15;;;5.75;;
66327;SDS011;53133;52.862;6.602;2023-02-03T12:43:35;30.35;;;5.55;;
66327;SDS011;53133;52.862;6.602;2023-02-03T12:46:03;26.65;;;5.78;;
66327;SDS011;53133;52.862;6.602;2023-02-03T12:51:40;35.05;;;5.95;;
66327;SDS011;53133;52.862;6.602;2023-02-03T12:59:50;38.85;;;6.70;;
66327;SDS011;53133;52.862;6.602;2023-02-03T13:02:25;34.78;;;6.18;;
66327;SDS011;53133;52.862;6.602;2023-02-03T13:04:55;26.58;;;5.47;;
66327;SDS011;53133;52.862;6.602;2023-02-03T13:07:31;31.05;;;6.00;;
66327;SDS011;53133;52.862;6.602;2023-02-03T13:10:14;37.22;;;7.07;;
66327;SDS011;53133;52.862;6.602;2023-02-03T13:12:48;32.50;;;6.05;;
66327;SDS011;53133;52.862;6.602;2023-02-03T13:17:44;31.60;;;6.28;;
66327;SDS011;53133;52.862;6.602;2023-02-03T13:20:32;30.25;;;5.85;;
66327;SDS011;53133;52.862;6.602;2023-02-03T13:23:03;33.35;;;5.85;;
66327;SDS011;53133;52.862;6.602;2023-02-03T13:25:36;31.27;;;6.22;;
66327;SDS011;53133;52.862;6.602;2023-02-03T13:28:16;29.25;;;7.38;;
66327;SDS011;53133;52.862;6.602;2023-02-03T13:31:17;39.35;;;7.35;;
66327;SDS011;53133;52.862;6.602;2023-02-03T13:39:57;33.78;;;7.05;;
66327;SDS011;53133;52.862;6.602;2023-02-03T13:42:39;30.25;;;6.95;;
66327;SDS011;53133;52.862;6.602;2023-02-03T13:53:40;35.83;;;6.82;;
66327;SDS011;53133;52.862;6.602;2023-02-03T13:56:43;32.28;;;6.75;;
66327;SDS011;53133;52.862;6.602;2023-02-03T13:59:05;35.50;;;7.03;;
66327;SDS011;53133;52.862;6.602;2023-02-03T14:01:52;45.20;;;7.25;;
66327;SDS011;53133;52.862;6.602;2023-02-03T14:10:26;33.47;;;6.25;;
66327;SDS011;53133;52.862;6.602;2023-02-03T14:15:26;27.60;;;5.88;;
66327;SDS011;53133;52.862;6.602;2023-02-03T14:17:56;30.27;;;6.70;;
66327;SDS011;53133;52.862;6.602;2023-02-03T14:22:57;30.08;;;6.25;;
66327;SDS011;53133;52.862;6.602;2023-02-03T14:25:30;32.25;;;6.10;;
66327;SDS011;53133;52.862;6.602;2023-02-03T14:30:29;26.42;;;5.43;;
66327;SDS011;53133;52.862;6.602;2023-02-03T14:32:56;22.73;;;6.03;;
66327;SDS011;53133;52.862;6.602;2023-02-03T14:35:28;30.23;;;6.30;;
66327;SDS011;53133;52.862;6.602;2023-02-03T14:38:01;29.40;;;6.30;;
66327;SDS011;53133;52.862;6.602;2023-02-03T14:40:30;26.05;;;5.55;;
66327;SDS011;53133;52.862;6.602;2023-02-03T14:56:43;21.10;;;4.82;;
66327;SDS011;53133;52.862;6.602;2023-02-03T14:59:53;22.85;;;4.55;;
66327;SDS011;53133;52.862;6.602;2023-02-03T15:02:30;23.98;;;4.43;;
66327;SDS011;53133;52.862;6.602;2023-02-03T15:07:39;25.58;;;5.60;;
66327;SDS011;53133;52.862;6.602;2023-02-03T15:13:04;25.08;;;4.13;;
66327;SDS011;53133;52.862;6.602;2023-02-03T15:15:31;23.75;;;4.63;;
66327;SDS011;53133;52.862;6.602;2023-02-03T15:18:18;21.60;;;4.10;;
66327;SDS011;53133;52.862;6.602;2023-02-03T15:20:46;28.33;;;4.93;;
66327;SDS011;53133;52.862;6.602;2023-02-03T15:23:19;24.58;;;4.80;;
66327;SDS011;53133;52.862;6.602;2023-02-03T15:25:53;24.73;;;4.00;;
66327;SDS011;53133;52.862;6.602;2023-02-03T15:28:22;19.13;;;4.53;;
66327;SDS011;53133;52.862;6.602;2023-02-03T15:30:51;18.08;;;4.10;;
66327;SDS011;53133;52.862;6.602;2023-02-03T15:33:24;22.95;;;4.22;;
66327;SDS011;53133;52.862;6.602;2023-02-03T15:36:00;18.88;;;3.75;;
66327;SDS011;53133;52.862;6.602;2023-02-03T15:38:37;23.33;;;4.65;;
66327;SDS011;53133;52.862;6.602;2023-02-03T15:41:10;21.45;;;3.47;;
66327;SDS011;53133;52.862;6.602;2023-02-03T15:43:46;19.35;;;3.30;;
66327;SDS011;53133;52.862;6.602;2023-02-03T15:46:15;18.98;;;3.50;;
66327;SDS011;53133;52.862;6.602;2023-02-03T15:48:49;23.48;;;3.83;;
66327;SDS011;53133;52.862;6.602;2023-02-03T15:51:19;23.30;;;4.13;;
66327;SDS011;53133;52.862;6.602;2023-02-03T15:53:54;17.58;;;3.55;;
66327;SDS011;53133;52.862;6.602;2023-02-03T15:56:24;26.67;;;4.68;;
66327;SDS011;53133;52.862;6.602;2023-02-03T15:59:02;20.75;;;3.58;;
66327;SDS011;53133;52.862;6.602;2023-02-03T16:01:29;13.27;;;3.63;;
66327;SDS011;53133;52.862;6.602;2023-02-03T16:03:55;21.92;;;4.00;;
66327;SDS011;53133;52.862;6.602;2023-02-03T16:08:54;16.33;;;3.78;;
66327;SDS011;53133;52.862;6.602;2023-02-03T16:11:35;20.13;;;4.18;;
66327;SDS011;53133;52.862;6.602;2023-02-03T16:14:03;23.33;;;3.83;;
66327;SDS011;53133;52.862;6.602;2023-02-03T16:16:36;21.95;;;4.38;;
66327;SDS011;53133;52.862;6.602;2023-02-03T16:19:03;16.83;;;4.07;;
66327;SDS011;53133;52.862;6.602;2023-02-03T16:21:41;27.38;;;4.20;;
66327;SDS011;53133;52.862;6.602;2023-02-03T16:24:26;28.52;;;5.15;;
66327;SDS011;53133;52.862;6.602;2023-02-03T16:29:54;25.20;;;5.25;;
66327;SDS011;53133;52.862;6.602;2023-02-03T16:32:38;41.95;;;9.63;;
66327;SDS011;53133;52.862;6.602;2023-02-03T16:35:23;34.88;;;7.82;;
66327;SDS011;53133;52.862;6.602;2023-02-03T16:38:14;38.22;;;9.48;;
66327;SDS011;53133;52.862;6.602;2023-02-03T16:40:59;32.67;;;6.90;;
66327;SDS011;53133;52.862;6.602;2023-02-03T16:43:44;29.88;;;7.55;;
66327;SDS011;53133;52.862;6.602;2023-02-03T16:46:29;30.70;;;6.38;;
66327;SDS011;53133;52.862;6.602;2023-02-03T16:49:13;39.40;;;8.57;;
66327;SDS011;53133;52.862;6.602;2023-02-03T16:51:57;38.33;;;10.05;;
66327;SDS011;53133;52.862;6.602;2023-02-03T16:54:23;37.60;;;9.70;;
66327;SDS011;53133;52.862;6.602;2023-02-03T16:56:49;37.50;;;6.85;;
66327;SDS011;53133;52.862;6.602;2023-02-03T16:59:16;36.28;;;7.20;;
66327;SDS011;53133;52.862;6.602;2023-02-03T17:01:41;31.95;;;7.25;;
66327;SDS011;53133;52.862;6.602;2023-02-03T17:04:08;30.38;;;6.70;;
66327;SDS011;53133;52.862;6.602;2023-02-03T17:06:38;35.58;;;6.90;;
66327;SDS011;53133;52.862;6.602;2023-02-03T17:09:05;37.10;;;7.75;;